createdAt,value
2022-09-04T00:00:19.159Z,92
2022-09-04T00:05:25.332Z,92
2022-09-04T00:10:31.421Z,92
2022-09-04T00:15:20.422Z,92
2022-09-04T00:20:26.496Z,92
2022-09-04T00:25:32.650Z,92
2022-09-04T00:30:21.355Z,92
2022-09-04T00:35:27.909Z,92
2022-09-04T00:40:16.542Z,92
2022-09-04T00:45:22.591Z,92
2022-09-04T00:50:28.586Z,92
2022-09-04T00:55:17.654Z,92
2022-09-04T01:00:23.811Z,92
2022-09-04T01:05:29.118Z,92
2022-09-04T01:10:18.209Z,92
2022-09-04T01:15:24.232Z,92
2022-09-04T01:20:30.320Z,92
2022-09-04T01:25:19.355Z,92
2022-09-04T01:30:25.274Z,92
2022-09-04T01:35:31.180Z,92
2022-09-04T01:40:20.231Z,92
2022-09-04T01:45:26.272Z,92
2022-09-04T01:50:32.356Z,92
2022-09-04T01:55:21.417Z,92
2022-09-04T02:00:27.440Z,92
2022-09-04T02:05:15.562Z,92
2022-09-04T02:10:21.647Z,92
2022-09-04T02:15:27.672Z,92
2022-09-04T02:20:16.753Z,92
2022-09-04T02:25:22.827Z,93
2022-09-04T02:30:28.691Z,93
2022-09-04T02:35:17.580Z,93
2022-09-04T02:40:23.740Z,93
2022-09-04T02:45:29.771Z,93
2022-09-04T02:50:18.802Z,93
2022-09-04T02:55:24.832Z,93
2022-09-04T03:00:31.033Z,93
2022-09-04T03:05:19.983Z,93
2022-09-04T03:10:26.066Z,93
2022-09-04T03:15:32.169Z,93
2022-09-04T03:20:21.210Z,93
2022-09-04T03:25:27.261Z,93
2022-09-04T03:30:16.174Z,93
2022-09-04T03:35:22.572Z,93
2022-09-04T03:40:28.347Z,93
2022-09-04T03:45:17.370Z,93
2022-09-04T03:50:23.530Z,93
2022-09-04T03:55:29.512Z,93
2022-09-04T04:00:18.520Z,93
2022-09-04T04:05:23.713Z,93
2022-09-04T04:10:29.766Z,93
2022-09-04T04:15:18.805Z,93
2022-09-04T04:20:24.882Z,93
2022-09-04T04:25:30.928Z,93
2022-09-04T04:30:19.701Z,93
2022-09-04T04:35:25.957Z,93
2022-09-04T04:40:31.904Z,93
2022-09-04T04:45:20.876Z,93
2022-09-04T04:50:26.957Z,93
2022-09-04T04:55:16.032Z,93
2022-09-04T05:00:27.338Z,93
2022-09-04T05:05:28.193Z,93
2022-09-04T05:10:17.264Z,93
2022-09-04T05:15:23.305Z,93
2022-09-04T05:20:29.406Z,93
2022-09-04T05:25:18.514Z,93
2022-09-04T05:30:24.275Z,93
2022-09-04T05:35:35.191Z,93
2022-09-04T05:40:19.412Z,93
2022-09-04T05:45:25.461Z,93
2022-09-04T05:50:31.579Z,93
2022-09-04T05:55:20.605Z,93
2022-09-04T06:00:26.623Z,93
2022-09-04T06:05:31.840Z,93
2022-09-04T06:10:20.775Z,93
2022-09-04T06:15:26.872Z,93
2022-09-04T06:20:15.967Z,93
2022-09-04T06:25:22.022Z,93
2022-09-04T06:30:28.142Z,93
2022-09-04T06:35:17.172Z,93
2022-09-04T06:40:23.326Z,93
2022-09-04T06:45:29.255Z,93
2022-09-04T06:50:18.309Z,93
2022-09-04T06:55:24.376Z,93
2022-09-04T07:00:30.508Z,93
2022-09-04T07:05:18.568Z,93
2022-09-04T07:10:24.621Z,93
2022-09-04T07:15:30.749Z,93
2022-09-04T07:20:19.706Z,93
2022-09-04T07:25:25.799Z,93
2022-09-04T07:30:31.618Z,93
2022-09-04T07:35:20.624Z,93
2022-09-04T07:40:27.839Z,93
2022-09-04T07:45:15.717Z,93
2022-09-04T07:50:21.773Z,93
2022-09-04T07:55:27.916Z,93
2022-09-04T08:00:16.924Z,93
2022-09-04T08:05:23.152Z,93
2022-09-04T08:10:29.230Z,93
2022-09-04T08:15:18.267Z,93
2022-09-04T08:20:24.361Z,93
2022-09-04T08:25:30.385Z,93
2022-09-04T08:30:19.432Z,93
2022-09-04T08:35:25.365Z,93
2022-09-04T08:40:31.535Z,93
2022-09-04T08:45:20.459Z,92
2022-09-04T08:50:26.535Z,92
2022-09-04T08:55:32.694Z,92
2022-09-04T09:00:21.641Z,91
2022-09-04T09:05:26.807Z,91
2022-09-04T09:10:15.867Z,90
2022-09-04T09:15:21.981Z,89
2022-09-04T09:20:28.053Z,89
2022-09-04T09:25:17.025Z,88
2022-09-04T09:30:23.443Z,88
2022-09-04T09:35:29.044Z,87
2022-09-04T09:40:18.099Z,86
2022-09-04T09:45:24.137Z,85
2022-09-04T09:50:30.161Z,84
2022-09-04T09:55:19.249Z,84
2022-09-04T10:00:25.311Z,84
2022-09-04T10:05:31.471Z,85
2022-09-04T10:10:20.503Z,84
2022-09-04T10:15:26.536Z,83
2022-09-04T10:20:32.558Z,82
2022-09-04T10:25:21.691Z,82
2022-09-04T10:30:27.685Z,82
2022-09-04T10:35:16.623Z,81
2022-09-04T10:40:23.236Z,81
2022-09-04T10:45:28.878Z,82
2022-09-04T10:50:17.842Z,80
2022-09-04T10:55:23.853Z,77
2022-09-04T11:00:29.910Z,77
2022-09-04T11:05:19.097Z,76
2022-09-04T11:10:25.185Z,76
2022-09-04T11:15:31.255Z,76
2022-09-04T11:20:20.198Z,75
2022-09-04T11:25:26.350Z,74
2022-09-04T11:30:32.217Z,73
2022-09-04T11:35:21.252Z,72
2022-09-04T11:40:27.461Z,72
2022-09-04T11:45:16.363Z,72
2022-09-04T11:50:22.635Z,71
2022-09-04T11:55:28.514Z,70
2022-09-04T12:00:17.562Z,68
2022-09-04T12:05:22.663Z,67
2022-09-04T12:10:28.779Z,66
2022-09-04T12:15:17.764Z,64
2022-09-04T12:20:23.849Z,64
2022-09-04T12:25:29.927Z,62
2022-09-04T12:30:18.933Z,62
2022-09-04T12:35:28.536Z,63
2022-09-04T12:40:31.007Z,64
2022-09-04T12:45:20.086Z,64
2022-09-04T12:50:26.240Z,64
2022-09-04T12:55:33.516Z,60
2022-09-04T13:00:21.213Z,59
2022-09-04T13:05:26.896Z,59
2022-09-04T13:10:15.921Z,58
2022-09-04T13:15:21.959Z,57
2022-09-04T13:20:28.036Z,55
2022-09-04T13:25:17.151Z,55
2022-09-04T13:30:23.363Z,53
2022-09-04T13:35:29.484Z,53
2022-09-04T13:40:18.467Z,51
2022-09-04T13:45:24.460Z,50
2022-09-04T13:50:31.190Z,52
2022-09-04T13:55:19.585Z,52
2022-09-04T14:00:25.806Z,53
2022-09-04T14:05:30.769Z,52
2022-09-04T14:10:20.096Z,52
2022-09-04T14:15:25.922Z,53
2022-09-04T14:20:31.915Z,52
2022-09-04T14:25:21.025Z,52
2022-09-04T14:30:26.884Z,51
2022-09-04T14:35:15.921Z,51
2022-09-04T14:40:21.992Z,50
2022-09-04T14:45:28.017Z,50
2022-09-04T14:50:17.046Z,48
2022-09-04T14:55:23.280Z,48
2022-09-04T15:00:29.203Z,47
2022-09-04T15:05:18.300Z,47
2022-09-04T15:10:24.426Z,47
2022-09-04T15:15:30.432Z,47
2022-09-04T15:20:19.477Z,47
2022-09-04T15:25:41.900Z,50
2022-09-04T15:30:32.259Z,51
2022-09-04T15:35:20.082Z,50
2022-09-04T15:40:26.136Z,49
2022-09-04T15:45:32.180Z,50
2022-09-04T15:50:21.214Z,50
2022-09-04T15:55:27.396Z,51
2022-09-04T16:00:16.447Z,50
2022-09-04T16:05:23.841Z,49
2022-09-04T16:10:27.619Z,49
2022-09-04T16:15:16.654Z,49
2022-09-04T16:20:22.684Z,50
2022-09-04T16:25:28.813Z,50
2022-09-04T16:30:17.736Z,49
2022-09-04T16:35:23.800Z,51
2022-09-04T16:40:29.845Z,50
2022-09-04T16:45:18.893Z,51
2022-09-04T16:50:24.997Z,51
2022-09-04T16:55:31.142Z,51
2022-09-04T17:00:20.094Z,53
2022-09-04T17:05:28.308Z,51
2022-09-04T17:10:36.122Z,55
2022-09-04T17:15:20.792Z,60
2022-09-04T17:20:38.401Z,64
2022-09-04T17:26:21.252Z,64
2022-09-04T17:29:05.064Z,64
2022-09-04T17:29:08.060Z,66
2022-09-04T17:29:08.417Z,66
2022-09-04T17:29:08.417Z,66
2022-09-04T17:30:28.898Z,68
2022-09-04T17:40:41.787Z,69
2022-09-04T17:40:43.032Z,69
2022-09-04T17:40:48.437Z,71
2022-09-04T17:40:53.765Z,69
2022-09-04T17:45:23.576Z,71
2022-09-04T17:50:29.633Z,73
2022-09-04T17:55:18.665Z,75
2022-09-04T18:00:24.773Z,75
2022-09-04T18:05:30.428Z,76
2022-09-04T18:10:18.908Z,77
2022-09-04T18:15:33.398Z,78
2022-09-04T18:20:31.036Z,79
2022-09-04T18:25:20.127Z,79
2022-09-04T18:34:12.542Z,80
2022-09-04T18:37:09.478Z,80
2022-09-04T18:37:17.608Z,81
2022-09-04T18:37:20.965Z,81
2022-09-04T18:37:23.988Z,80
2022-09-04T18:37:47.340Z,81
2022-09-04T18:40:36.076Z,81
2022-09-04T18:44:56.692Z,81
2022-09-04T18:50:22.475Z,81
2022-09-04T18:50:45.735Z,82
2022-09-04T18:50:45.735Z,82
2022-09-04T18:50:47.148Z,82
2022-09-04T18:50:51.445Z,82
2022-09-04T18:55:22.134Z,83
2022-09-04T19:00:28.188Z,83
2022-09-04T19:05:17.336Z,83
2022-09-04T19:10:23.355Z,83
2022-09-04T19:15:37.030Z,84
2022-09-04T19:20:18.439Z,84
2022-09-04T19:25:24.599Z,84
2022-09-04T19:30:30.047Z,85
2022-09-04T19:35:19.165Z,85
2022-09-04T19:45:59.054Z,85
2022-09-04T19:46:02.226Z,85
2022-09-04T19:46:05.152Z,85
2022-09-04T19:46:13.884Z,85
2022-09-04T19:53:18.987Z,85
2022-09-04T19:53:24.517Z,85
2022-09-04T19:53:30.285Z,85
2022-09-04T19:55:26.377Z,86
2022-09-04T20:00:43.777Z,86
2022-09-04T20:05:21.034Z,86
2022-09-04T20:10:27.018Z,86
2022-09-04T20:15:16.108Z,87
2022-09-04T20:20:22.125Z,87
2022-09-04T20:25:28.217Z,87
2022-09-04T20:30:16.920Z,87
2022-09-04T20:35:33.112Z,87
2022-09-04T20:40:29.016Z,87
2022-09-04T20:46:42.207Z,87
2022-09-04T20:52:21.822Z,87
2022-09-04T20:52:42.143Z,87
2022-09-04T20:52:50.228Z,87
2022-09-04T20:52:56.684Z,87
2022-09-04T20:52:57.623Z,87
2022-09-04T20:55:30.242Z,87
2022-09-04T21:03:17.136Z,88
2022-09-04T21:03:19.146Z,88
2022-09-04T21:03:21.879Z,88
2022-09-04T21:05:24.993Z,88
2022-09-04T21:10:30.881Z,88
2022-09-04T21:15:19.947Z,88
2022-09-04T21:20:25.961Z,88
2022-09-04T21:25:32.095Z,88
2022-09-04T21:30:25.855Z,88
2022-09-04T21:35:26.521Z,88
2022-09-04T21:40:21.624Z,88
2022-09-04T21:45:21.652Z,89
2022-09-04T21:50:28.410Z,89
2022-09-04T21:56:38.128Z,89
2022-09-04T21:59:49.308Z,89
2022-09-04T22:02:27.918Z,89
2022-09-04T22:02:37.306Z,89
2022-09-04T22:02:38.110Z,89
2022-09-04T22:05:29.395Z,89
2022-09-04T22:13:31.042Z,89
2022-09-04T22:13:38.743Z,89
2022-09-04T22:13:42.099Z,89
2022-09-04T22:15:25.048Z,89
2022-09-04T22:20:34.886Z,89
2022-09-04T22:25:19.499Z,89
2022-09-04T22:30:31.503Z,89
2022-09-04T22:35:35.700Z,89
2022-09-04T22:40:20.099Z,89
2022-09-04T22:45:26.181Z,89
2022-09-04T22:50:49.638Z,89
2022-09-04T22:55:38.932Z,89
2022-09-04T23:00:27.295Z,90
2022-09-04T23:05:15.895Z,90
2022-09-04T23:13:49.425Z,90
2022-09-04T23:13:53.898Z,90
2022-09-04T23:14:02.131Z,90
2022-09-04T23:15:28.016Z,90
2022-09-04T23:26:33.168Z,90
2022-09-04T23:26:35.125Z,90
2022-09-04T23:26:44.475Z,90
2022-09-04T23:26:45.672Z,90
2022-09-04T23:26:52.674Z,90
2022-09-04T23:30:29.225Z,90
2022-09-04T23:35:18.246Z,90
2022-09-04T23:40:24.371Z,90
2022-09-04T23:45:30.385Z,90
2022-09-04T23:50:19.462Z,90
2022-09-04T23:55:26.237Z,90
